Time;durP1;ratioP1;P1;durP2;ratioP2;P2;SDS_P1;SDS_P2;PMS_P1;PMS_P2;Temp;Humidity;BMP_temperature;BMP_pressure;BME280_temperature;BME280_humidity;BME280_pressure;Samples;Min_cycle;Max_cycle;Signal;HPM_P1;HPM_P2
2023/10/30 00:01:56;;;;;;;3.22;1.00;;;;;;;;;;5129481;27;20051;-74
2023/10/30 00:04:22;;;;;;;2.38;1.00;;;;;;;;;;5130739;27;20055;-75
2023/10/30 00:06:49;;;;;;;1.90;1.10;;;;;;;;;;5111326;27;20039;-75
2023/10/30 00:09:17;;;;;;;2.38;1.10;;;;;;;;;;5128804;27;20051;-75
2023/10/30 00:11:46;;;;;;;1.17;0.90;;;;;;;;;;5129000;27;20055;-74
2023/10/30 00:14:14;;;;;;;4.05;1.30;;;;;;;;;;5129563;27;20050;-74
2023/10/30 00:16:41;;;;;;;3.55;1.60;;;;;;;;;;5129069;27;20043;-74
2023/10/30 00:19:08;;;;;;;3.08;1.20;;;;;;;;;;5129434;27;20054;-75
2023/10/30 00:21:38;;;;;;;4.30;1.20;;;;;;;;;;5129607;28;20070;-74
2023/10/30 00:24:05;;;;;;;3.43;1.00;;;;;;;;;;5128899;27;20039;-75
2023/10/30 00:26:31;;;;;;;2.50;1.00;;;;;;;;;;5129583;28;20047;-74
2023/10/30 00:28:58;;;;;;;2.90;1.20;;;;;;;;;;5129068;28;20051;-75
2023/10/30 00:31:26;;;;;;;2.90;1.15;;;;;;;;;;5131856;28;20055;-75
2023/10/30 00:33:55;;;;;;;4.10;1.33;;;;;;;;;;5128860;28;20439;-74
2023/10/30 00:36:22;;;;;;;3.65;1.25;;;;;;;;;;5129185;27;20044;-74
2023/10/30 00:38:49;;;;;;;1.70;1.00;;;;;;;;;;5128656;27;20043;-73
2023/10/30 00:41:15;;;;;;;2.60;1.38;;;;;;;;;;5129314;28;20047;-74
2023/10/30 00:43:42;;;;;;;3.67;1.40;;;;;;;;;;5110879;28;20050;-75
2023/10/30 00:46:09;;;;;;;3.15;1.20;;;;;;;;;;5110955;28;20047;-74
2023/10/30 00:48:36;;;;;;;1.98;1.05;;;;;;;;;;5128690;28;20044;-75
2023/10/30 00:51:02;;;;;;;1.85;0.90;;;;;;;;;;5129070;28;20092;-74
2023/10/30 00:53:29;;;;;;;1.67;0.90;;;;;;;;;;5128384;28;20541;-73
2023/10/30 00:55:56;;;;;;;2.90;1.10;;;;;;;;;;5128895;28;20040;-74
2023/10/30 00:58:22;;;;;;;2.03;1.00;;;;;;;;;;5128836;28;20050;-74
2023/10/30 01:00:50;;;;;;;2.15;1.00;;;;;;;;;;5131329;27;20043;-75
2023/10/30 01:03:19;;;;;;;1.92;1.13;;;;;;;;;;5132631;27;20043;-73
2023/10/30 01:05:47;;;;;;;3.22;1.02;;;;;;;;;;5132927;27;20069;-73
2023/10/30 01:08:14;;;;;;;4.47;1.40;;;;;;;;;;5132434;27;20069;-74
2023/10/30 01:10:43;;;;;;;3.85;1.10;;;;;;;;;;5134372;27;20050;-73
2023/10/30 01:13:10;;;;;;;3.22;1.25;;;;;;;;;;5133078;27;20047;-73
2023/10/30 01:15:37;;;;;;;3.65;1.20;;;;;;;;;;5132927;27;20058;-75
2023/10/30 01:18:04;;;;;;;3.50;1.33;;;;;;;;;;5132212;27;20059;-75
2023/10/30 01:20:31;;;;;;;3.28;1.20;;;;;;;;;;5114218;27;20072;-74
2023/10/30 01:22:58;;;;;;;2.97;1.52;;;;;;;;;;5114288;27;20044;-77
2023/10/30 01:25:25;;;;;;;3.35;1.27;;;;;;;;;;5131951;27;20039;-74
2023/10/30 01:27:51;;;;;;;4.57;1.50;;;;;;;;;;5132229;27;20866;-74
2023/10/30 01:30:19;;;;;;;2.30;1.10;;;;;;;;;;5132191;27;20430;-75
2023/10/30 01:32:46;;;;;;;5.30;1.60;;;;;;;;;;5132443;27;20139;-75
2023/10/30 01:35:12;;;;;;;2.53;1.23;;;;;;;;;;5132402;27;20499;-74
2023/10/30 01:37:39;;;;;;;2.97;1.30;;;;;;;;;;5133052;27;20047;-73
2023/10/30 01:40:06;;;;;;;1.70;1.20;;;;;;;;;;5131691;27;20054;-74
2023/10/30 01:42:33;;;;;;;2.53;1.15;;;;;;;;;;5132057;27;20058;-75
2023/10/30 01:45:00;;;;;;;2.90;1.33;;;;;;;;;;5132095;27;20602;-74
2023/10/30 01:47:27;;;;;;;2.58;1.33;;;;;;;;;;5132143;27;20070;-74
2023/10/30 01:49:58;;;;;;;4.45;1.23;;;;;;;;;;5132332;27;20047;-74
2023/10/30 01:52:28;;;;;;;3.72;1.10;;;;;;;;;;5113667;27;20406;-74
2023/10/30 01:54:55;;;;;;;4.82;1.48;;;;;;;;;;5131512;27;20081;-73
2023/10/30 01:57:22;;;;;;;2.90;1.10;;;;;;;;;;5131903;27;20677;-72
2023/10/30 01:59:50;;;;;;;3.17;1.10;;;;;;;;;;5131350;27;20047;-75
2023/10/30 02:02:20;;;;;;;2.30;1.20;;;;;;;;;;5132061;27;20122;-74
2023/10/30 02:04:47;;;;;;;2.17;1.10;;;;;;;;;;5131476;27;20095;-74
2023/10/30 02:07:15;;;;;;;2.63;1.15;;;;;;;;;;5132052;27;20047;-74
2023/10/30 02:09:46;;;;;;;3.75;1.30;;;;;;;;;;5131082;27;20414;-73
2023/10/30 02:12:13;;;;;;;3.25;1.35;;;;;;;;;;5131330;27;20047;-74
2023/10/30 02:14:40;;;;;;;4.07;1.60;;;;;;;;;;5131594;27;20123;-74
2023/10/30 02:17:07;;;;;;;3.22;1.45;;;;;;;;;;5131454;27;20043;-75
2023/10/30 02:19:34;;;;;;;3.35;1.27;;;;;;;;;;5131218;27;20159;-74
2023/10/30 02:22:00;;;;;;;2.83;1.30;;;;;;;;;;5131409;27;20043;-74
2023/10/30 02:24:27;;;;;;;4.00;1.60;;;;;;;;;;5130699;27;20573;-76
2023/10/30 02:26:54;;;;;;;2.97;1.35;;;;;;;;;;5131462;27;20469;-74
2023/10/30 02:29:21;;;;;;;3.47;1.60;;;;;;;;;;5131246;27;20043;-73
2023/10/30 02:31:47;;;;;;;2.85;1.40;;;;;;;;;;5131109;27;20499;-74
2023/10/30 02:34:14;;;;;;;3.42;1.30;;;;;;;;;;5131020;27;20039;-73
2023/10/30 02:36:41;;;;;;;2.13;1.20;;;;;;;;;;5131200;27;20100;-74
2023/10/30 02:39:08;;;;;;;4.90;1.38;;;;;;;;;;5130507;27;20043;-74
2023/10/30 02:41:35;;;;;;;4.65;1.50;;;;;;;;;;5131316;27;20047;-73
2023/10/30 02:44:02;;;;;;;3.20;1.38;;;;;;;;;;5130918;27;20051;-73
2023/10/30 02:46:29;;;;;;;4.30;1.50;;;;;;;;;;5131375;27;20039;-75
2023/10/30 02:48:56;;;;;;;3.17;1.27;;;;;;;;;;5130898;27;20104;-73
2023/10/30 02:51:22;;;;;;;3.80;1.80;;;;;;;;;;5130597;27;20070;-73
2023/10/30 02:53:49;;;;;;;3.80;1.27;;;;;;;;;;5130003;27;20051;-73
2023/10/30 02:56:16;;;;;;;3.08;1.30;;;;;;;;;;5130940;27;20053;-75
2023/10/30 02:58:42;;;;;;;3.42;1.42;;;;;;;;;;5130918;27;20050;-74
2023/10/30 03:01:09;;;;;;;3.70;1.25;;;;;;;;;;5130710;27;20043;-75
2023/10/30 03:03:36;;;;;;;3.28;1.25;;;;;;;;;;5130521;27;20046;-74
2023/10/30 03:06:03;;;;;;;2.83;1.38;;;;;;;;;;5130538;27;20039;-74
2023/10/30 03:08:30;;;;;;;3.63;1.55;;;;;;;;;;5129844;27;20050;-75
2023/10/30 03:10:56;;;;;;;3.15;1.48;;;;;;;;;;5130260;27;20047;-74
2023/10/30 03:13:23;;;;;;;3.05;1.40;;;;;;;;;;5130579;27;20154;-75
2023/10/30 03:15:50;;;;;;;3.35;1.40;;;;;;;;;;5130241;27;20514;-73
2023/10/30 03:18:17;;;;;;;3.20;1.20;;;;;;;;;;5112096;27;20055;-74
2023/10/30 03:20:44;;;;;;;2.42;1.23;;;;;;;;;;5130108;27;20114;-73
2023/10/30 03:23:11;;;;;;;2.85;1.30;;;;;;;;;;5129149;27;20043;-74
2023/10/30 03:25:37;;;;;;;3.22;1.48;;;;;;;;;;5130381;27;20043;-74
2023/10/30 03:28:04;;;;;;;4.45;1.27;;;;;;;;;;5130142;27;20137;-73
2023/10/30 03:30:34;;;;;;;2.83;1.30;;;;;;;;;;5129826;27;20047;-75
2023/10/30 03:33:03;;;;;;;3.47;1.30;;;;;;;;;;5112066;27;20126;-74
2023/10/30 03:35:31;;;;;;;3.13;1.45;;;;;;;;;;5130197;27;20123;-74
2023/10/30 03:37:57;;;;;;;3.25;1.15;;;;;;;;;;5129945;27;20505;-75
2023/10/30 03:40:24;;;;;;;5.72;1.67;;;;;;;;;;5129173;27;20043;-74
2023/10/30 03:42:51;;;;;;;3.88;1.33;;;;;;;;;;5130154;27;20051;-74
2023/10/30 03:45:17;;;;;;;5.20;1.35;;;;;;;;;;5129847;27;20050;-74
2023/10/30 03:47:45;;;;;;;4.85;1.55;;;;;;;;;;5129574;27;20051;-75
2023/10/30 03:50:16;;;;;;;3.00;1.30;;;;;;;;;;5129189;27;20179;-74
2023/10/30 03:52:43;;;;;;;2.35;1.30;;;;;;;;;;5129990;27;20042;-75
2023/10/30 03:55:10;;;;;;;3.75;1.33;;;;;;;;;;5129115;27;20089;-73
2023/10/30 03:57:38;;;;;;;4.97;1.50;;;;;;;;;;5129749;27;20047;-73
2023/10/30 04:00:07;;;;;;;4.13;1.50;;;;;;;;;;5129480;27;20047;-75
2023/10/30 04:02:33;;;;;;;2.40;1.17;;;;;;;;;;5129563;27;20053;-74
2023/10/30 04:05:00;;;;;;;4.20;1.38;;;;;;;;;;5129213;27;20534;-74
2023/10/30 04:07:27;;;;;;;6.13;1.40;;;;;;;;;;5129329;27;20043;-74
2023/10/30 04:09:54;;;;;;;3.97;1.40;;;;;;;;;;5129137;27;20084;-73
2023/10/30 04:12:21;;;;;;;3.35;1.45;;;;;;;;;;5129538;27;20055;-73
2023/10/30 04:14:48;;;;;;;3.63;1.30;;;;;;;;;;5111230;27;20047;-73
2023/10/30 04:17:14;;;;;;;6.47;1.40;;;;;;;;;;5131182;27;20055;-74
2023/10/30 04:19:41;;;;;;;5.63;1.48;;;;;;;;;;5110833;27;20506;-74
2023/10/30 04:22:08;;;;;;;2.88;1.67;;;;;;;;;;5129374;28;20040;-74
2023/10/30 04:24:34;;;;;;;3.83;1.20;;;;;;;;;;5128979;27;20122;-74
2023/10/30 04:27:01;;;;;;;2.97;1.33;;;;;;;;;;5128936;28;20565;-74
2023/10/30 04:29:28;;;;;;;4.50;1.30;;;;;;;;;;5129094;28;20045;-74
2023/10/30 04:31:55;;;;;;;7.32;1.73;;;;;;;;;;5128547;28;20607;-73
2023/10/30 04:34:21;;;;;;;2.58;1.05;;;;;;;;;;5131361;27;20078;-75
2023/10/30 04:36:48;;;;;;;6.28;1.70;;;;;;;;;;5133028;27;20050;-74
2023/10/30 04:39:15;;;;;;;3.60;1.30;;;;;;;;;;5132629;27;20043;-74
2023/10/30 04:41:42;;;;;;;2.47;1.20;;;;;;;;;;5132653;27;20051;-73
2023/10/30 04:44:08;;;;;;;5.50;1.80;;;;;;;;;;5132870;27;20552;-75
2023/10/30 04:46:35;;;;;;;3.08;1.40;;;;;;;;;;5132928;27;20035;-74
2023/10/30 04:49:02;;;;;;;6.65;1.70;;;;;;;;;;5133014;27;20070;-75
2023/10/30 04:51:28;;;;;;;7.40;1.88;;;;;;;;;;5132568;27;20056;-74
2023/10/30 04:53:55;;;;;;;4.53;1.33;;;;;;;;;;5132064;27;20527;-74
2023/10/30 04:56:22;;;;;;;8.82;1.40;;;;;;;;;;5115282;27;20043;-74
2023/10/30 04:58:49;;;;;;;6.03;1.55;;;;;;;;;;5133127;27;20047;-74
2023/10/30 05:01:15;;;;;;;2.70;1.15;;;;;;;;;;5133228;27;20090;-74
2023/10/30 05:03:42;;;;;;;6.38;1.70;;;;;;;;;;5133130;27;20129;-74
2023/10/30 05:06:09;;;;;;;5.55;1.30;;;;;;;;;;5113975;27;20052;-75
2023/10/30 05:08:36;;;;;;;5.20;1.55;;;;;;;;;;5132038;27;20506;-74
2023/10/30 05:11:03;;;;;;;4.22;1.55;;;;;;;;;;5131937;27;20047;-73
2023/10/30 05:13:30;;;;;;;3.92;1.30;;;;;;;;;;5131995;27;20039;-74
2023/10/30 05:15:57;;;;;;;4.05;1.48;;;;;;;;;;5131858;27;20498;-74
2023/10/30 05:18:30;;;;;;;4.20;1.23;;;;;;;;;;5131984;27;20111;-73
2023/10/30 05:20:57;;;;;;;5.43;1.55;;;;;;;;;;5133471;27;20065;-73
2023/10/30 05:23:24;;;;;;;5.03;1.33;;;;;;;;;;5131763;27;20549;-75
2023/10/30 05:25:51;;;;;;;3.90;1.60;;;;;;;;;;5133549;27;20110;-74
2023/10/30 05:28:17;;;;;;;5.60;1.50;;;;;;;;;;5131992;27;20054;-74
2023/10/30 05:30:44;;;;;;;4.90;1.83;;;;;;;;;;5132658;27;20055;-73
2023/10/30 05:33:11;;;;;;;6.50;1.77;;;;;;;;;;5131904;27;20047;-75
2023/10/30 05:35:38;;;;;;;6.57;1.92;;;;;;;;;;5132146;27;20506;-74
2023/10/30 05:38:05;;;;;;;3.33;1.33;;;;;;;;;;5131941;27;20047;-74
2023/10/30 05:40:32;;;;;;;5.10;1.15;;;;;;;;;;5131950;27;20039;-75
2023/10/30 05:42:58;;;;;;;4.63;1.15;;;;;;;;;;5132348;27;20070;-74
2023/10/30 05:45:25;;;;;;;4.60;1.52;;;;;;;;;;5131397;27;20043;-76
2023/10/30 05:47:52;;;;;;;4.45;1.55;;;;;;;;;;5113783;27;20051;-74
2023/10/30 05:50:20;;;;;;;4.10;1.10;;;;;;;;;;5132310;27;20058;-74
2023/10/30 05:52:46;;;;;;;5.40;1.55;;;;;;;;;;5131517;27;20547;-73
2023/10/30 05:55:13;;;;;;;5.40;1.60;;;;;;;;;;5131613;27;20046;-75
2023/10/30 05:57:41;;;;;;;5.13;1.52;;;;;;;;;;5132005;27;20050;-75
2023/10/30 06:00:09;;;;;;;3.13;1.33;;;;;;;;;;5131907;27;20100;-75
2023/10/30 06:02:36;;;;;;;4.80;1.50;;;;;;;;;;5131470;27;20070;-73
2023/10/30 06:05:05;;;;;;;2.97;1.50;;;;;;;;;;5131744;27;20519;-74
2023/10/30 06:07:31;;;;;;;4.70;1.42;;;;;;;;;;5131518;27;20047;-75
2023/10/30 06:09:58;;;;;;;4.07;1.40;;;;;;;;;;5131459;27;20043;-74
2023/10/30 06:12:25;;;;;;;4.55;1.27;;;;;;;;;;5131076;27;20061;-74
2023/10/30 06:14:52;;;;;;;3.10;1.05;;;;;;;;;;5113649;27;20071;-73
2023/10/30 06:17:18;;;;;;;4.35;1.45;;;;;;;;;;5131212;27;20441;-73
2023/10/30 06:19:45;;;;;;;4.03;1.38;;;;;;;;;;5131729;27;20055;-75
2023/10/30 06:22:12;;;;;;;3.55;1.35;;;;;;;;;;5130920;27;20579;-74
2023/10/30 06:24:38;;;;;;;3.55;1.35;;;;;;;;;;5130945;27;20554;-74
2023/10/30 06:27:06;;;;;;;3.60;1.10;;;;;;;;;;5130916;27;20517;-73
2023/10/30 06:29:33;;;;;;;5.47;1.50;;;;;;;;;;5131315;27;20383;-74
2023/10/30 06:31:59;;;;;;;3.70;1.25;;;;;;;;;;5131111;27;20066;-74
2023/10/30 06:34:26;;;;;;;2.13;1.05;;;;;;;;;;5131003;27;20076;-74
2023/10/30 06:36:53;;;;;;;4.45;1.60;;;;;;;;;;5131320;27;20039;-74
2023/10/30 06:39:20;;;;;;;14.35;2.15;;;;;;;;;;5131064;27;20039;-75
2023/10/30 06:41:54;;;;;;;4.22;1.58;;;;;;;;;;5112752;27;20108;-74
2023/10/30 06:44:25;;;;;;;5.88;1.70;;;;;;;;;;5130975;27;20551;-75
2023/10/30 06:46:52;;;;;;;5.03;1.45;;;;;;;;;;5131179;27;20137;-75
2023/10/30 06:49:23;;;;;;;4.13;1.40;;;;;;;;;;5130828;27;20042;-73
2023/10/30 06:51:49;;;;;;;5.88;1.50;;;;;;;;;;5130853;27;20077;-73
2023/10/30 06:54:16;;;;;;;9.93;1.90;;;;;;;;;;5130174;27;20054;-75
2023/10/30 06:56:43;;;;;;;8.50;1.75;;;;;;;;;;5130408;27;20050;-74
2023/10/30 06:59:12;;;;;;;3.42;1.60;;;;;;;;;;5129935;27;20050;-73
2023/10/30 07:01:44;;;;;;;11.30;2.00;;;;;;;;;;5128653;27;20059;-74
2023/10/30 07:04:11;;;;;;;8.65;1.85;;;;;;;;;;5110239;28;20096;-74
2023/10/30 07:06:40;;;;;;;8.20;1.92;;;;;;;;;;5109718;28;20101;-74
2023/10/30 07:09:07;;;;;;;6.90;1.85;;;;;;;;;;5109710;28;20128;-73
2023/10/30 07:11:39;;;;;;;5.40;1.88;;;;;;;;;;5109719;28;20044;-73
2023/10/30 07:14:08;;;;;;;3.33;1.23;;;;;;;;;;5109627;28;20472;-73
2023/10/30 07:16:35;;;;;;;3.55;1.20;;;;;;;;;;5110102;28;20058;-73
2023/10/30 07:19:11;;;;;;;4.82;1.40;;;;;;;;;;5109846;28;20046;-74
2023/10/30 07:21:38;;;;;;;4.57;1.60;;;;;;;;;;5109584;28;20047;-74
2023/10/30 07:24:08;;;;;;;4.65;1.40;;;;;;;;;;5091908;28;20411;-75
2023/10/30 07:26:35;;;;;;;3.72;1.50;;;;;;;;;;5112896;27;20047;-75
2023/10/30 07:29:02;;;;;;;3.80;1.55;;;;;;;;;;5129636;27;20058;-73
2023/10/30 07:31:28;;;;;;;5.03;1.92;;;;;;;;;;5129778;27;20054;-74
2023/10/30 07:33:55;;;;;;;6.03;1.73;;;;;;;;;;5129079;27;20039;-74
2023/10/30 07:36:22;;;;;;;3.28;1.40;;;;;;;;;;5130670;27;20071;-74
2023/10/30 07:38:49;;;;;;;4.38;1.60;;;;;;;;;;5129740;27;20461;-77
2023/10/30 07:41:16;;;;;;;5.15;1.80;;;;;;;;;;5112649;27;20207;-75
2023/10/30 07:43:43;;;;;;;5.20;1.65;;;;;;;;;;5139377;27;20044;-73
2023/10/30 07:46:14;;;;;;;4.55;1.70;;;;;;;;;;5140430;27;20106;-73
2023/10/30 07:48:40;;;;;;;;;;;;;;;;;;5127588;27;20039;-73
2023/10/30 07:51:07;;;;;;;4.88;1.60;;;;;;;;;;5140799;27;19952;-73
2023/10/30 07:53:34;;;;;;;5.63;2.10;;;;;;;;;;5140514;27;20353;-74
2023/10/30 07:56:00;;;;;;;5.78;2.10;;;;;;;;;;5141307;27;20039;-73
2023/10/30 07:58:27;;;;;;;8.80;2.22;;;;;;;;;;5141542;27;20087;-74
2023/10/30 08:00:54;;;;;;;4.20;1.67;;;;;;;;;;5141563;27;20088;-73
2023/10/30 08:03:25;;;;;;;3.80;1.40;;;;;;;;;;5140944;27;20043;-76
2023/10/30 08:05:52;;;;;;;2.30;1.30;;;;;;;;;;5140821;27;20382;-74
2023/10/30 08:08:18;;;;;;;4.20;1.50;;;;;;;;;;5141179;27;20043;-72
2023/10/30 08:10:46;;;;;;;7.25;2.00;;;;;;;;;;5141720;27;20054;-72
2023/10/30 08:13:13;;;;;;;6.65;1.85;;;;;;;;;;5141787;27;20047;-73
2023/10/30 08:15:40;;;;;;;7.18;2.33;;;;;;;;;;5139217;27;20047;-73
2023/10/30 08:18:07;;;;;;;8.07;2.47;;;;;;;;;;5141177;27;20065;-73
2023/10/30 08:20:34;;;;;;;8.18;2.03;;;;;;;;;;5141542;27;20049;-72
2023/10/30 08:23:03;;;;;;;9.18;2.15;;;;;;;;;;5141442;27;20057;-73
2023/10/30 08:25:29;;;;;;;13.65;2.53;;;;;;;;;;5141704;28;20257;-73
2023/10/30 08:28:00;;;;;;;10.30;2.22;;;;;;;;;;5141594;28;20072;-73
2023/10/30 08:30:28;;;;;;;8.25;2.28;;;;;;;;;;5141766;27;20043;-74
2023/10/30 08:32:56;;;;;;;7.03;1.83;;;;;;;;;;5140971;27;20080;-73
2023/10/30 08:35:23;;;;;;;3.78;1.77;;;;;;;;;;5141498;28;20043;-73
2023/10/30 08:37:49;;;;;;;7.13;2.30;;;;;;;;;;5140458;27;20081;-73
2023/10/30 08:40:17;;;;;;;8.45;2.05;;;;;;;;;;5140648;28;20384;-73
2023/10/30 08:42:44;;;;;;;8.30;2.47;;;;;;;;;;5139654;28;20231;-73
2023/10/30 08:45:11;;;;;;;7.15;2.30;;;;;;;;;;5119244;28;20070;-72
2023/10/30 08:47:38;;;;;;;8.77;2.40;;;;;;;;;;5133052;28;20272;-72
2023/10/30 08:50:07;;;;;;;5.68;1.83;;;;;;;;;;5140765;28;20051;-75
2023/10/30 08:52:34;;;;;;;6.13;2.20;;;;;;;;;;5141358;28;20051;-72
2023/10/30 08:55:01;;;;;;;7.10;2.08;;;;;;;;;;5141482;28;20043;-72
2023/10/30 08:57:27;;;;;;;6.55;1.77;;;;;;;;;;5141537;27;20127;-72
2023/10/30 08:59:54;;;;;;;3.17;1.60;;;;;;;;;;5141552;28;20046;-72
2023/10/30 09:02:21;;;;;;;3.42;1.70;;;;;;;;;;5135247;28;20053;-72
2023/10/30 09:04:51;;;;;;;3.87;1.60;;;;;;;;;;5109561;28;20054;-73
2023/10/30 09:07:18;;;;;;;2.75;1.58;;;;;;;;;;5129661;28;20130;-72
2023/10/30 09:09:44;;;;;;;2.20;1.40;;;;;;;;;;5127740;28;20126;-71
2023/10/30 09:12:11;;;;;;;3.72;1.50;;;;;;;;;;5129742;28;20515;-73
2023/10/30 09:14:38;;;;;;;3.70;1.70;;;;;;;;;;5128149;27;20479;-72
2023/10/30 09:17:08;;;;;;;4.20;1.67;;;;;;;;;;5137713;28;20161;-74
2023/10/30 09:19:36;;;;;;;6.30;1.88;;;;;;;;;;5131487;27;20100;-73
2023/10/30 09:22:04;;;;;;;5.60;1.77;;;;;;;;;;5133007;27;20045;-73
2023/10/30 09:24:31;;;;;;;4.22;1.70;;;;;;;;;;5132990;27;20150;-73
2023/10/30 09:26:57;;;;;;;3.28;1.40;;;;;;;;;;5132624;27;20050;-74
2023/10/30 09:29:24;;;;;;;3.95;1.50;;;;;;;;;;5132967;27;20067;-74
2023/10/30 09:31:51;;;;;;;3.35;1.30;;;;;;;;;;5132778;27;20531;-74
2023/10/30 09:34:18;;;;;;;4.28;1.58;;;;;;;;;;5132065;27;20044;-73
2023/10/30 09:36:45;;;;;;;3.65;1.60;;;;;;;;;;5133385;27;20043;-73
2023/10/30 09:39:12;;;;;;;4.03;1.70;;;;;;;;;;5132788;27;20043;-73
2023/10/30 09:41:45;;;;;;;3.70;1.60;;;;;;;;;;5132898;27;20423;-75
2023/10/30 09:44:12;;;;;;;3.13;1.73;;;;;;;;;;5132506;27;20039;-73
2023/10/30 09:46:40;;;;;;;6.18;1.50;;;;;;;;;;5131773;27;20431;-73
2023/10/30 09:49:13;;;;;;;3.28;1.33;;;;;;;;;;5132914;27;20455;-73
2023/10/30 09:51:43;;;;;;;4.22;1.65;;;;;;;;;;5132707;27;20114;-72
2023/10/30 09:54:12;;;;;;;4.53;1.92;;;;;;;;;;5131925;27;20054;-73
2023/10/30 09:56:39;;;;;;;7.57;1.92;;;;;;;;;;5132705;27;20043;-73
2023/10/30 09:59:06;;;;;;;6.13;1.80;;;;;;;;;;5132756;27;20183;-73
2023/10/30 10:01:34;;;;;;;4.85;1.38;;;;;;;;;;5132486;27;20493;-73
2023/10/30 10:04:01;;;;;;;3.67;1.42;;;;;;;;;;5132262;27;20082;-72
2023/10/30 10:06:28;;;;;;;4.25;1.73;;;;;;;;;;5132737;27;20791;-73
2023/10/30 10:08:55;;;;;;;5.57;1.55;;;;;;;;;;5132250;27;20478;-73
2023/10/30 10:11:22;;;;;;;3.10;1.50;;;;;;;;;;5132611;27;20040;-72
2023/10/30 10:13:49;;;;;;;6.95;1.90;;;;;;;;;;5113914;27;20123;-76
2023/10/30 10:16:30;;;;;;;3.80;1.70;;;;;;;;;;5132295;27;20077;-75
2023/10/30 10:18:58;;;;;;;1.92;1.40;;;;;;;;;;5132224;27;20043;-76
2023/10/30 10:21:25;;;;;;;4.03;1.38;;;;;;;;;;5114132;27;20043;-75
2023/10/30 10:23:52;;;;;;;4.57;2.17;;;;;;;;;;5131808;27;20047;-74
2023/10/30 10:26:29;;;;;;;4.50;1.50;;;;;;;;;;5132253;27;20040;-75
2023/10/30 10:28:56;;;;;;;7.93;2.00;;;;;;;;;;5131469;27;20073;-77
2023/10/30 10:31:24;;;;;;;5.00;2.00;;;;;;;;;;5131064;27;20127;-75
2023/10/30 10:33:56;;;;;;;6.60;2.10;;;;;;;;;;5131002;27;20038;-74
2023/10/30 10:36:31;;;;;;;4.40;1.90;;;;;;;;;;5131626;27;20039;-77
2023/10/30 10:38:59;;;;;;;4.93;1.80;;;;;;;;;;5128282;27;20745;-75
2023/10/30 10:41:29;;;;;;;4.18;1.77;;;;;;;;;;5113317;27;20049;-75
2023/10/30 10:43:56;;;;;;;5.38;1.67;;;;;;;;;;5130959;27;20122;-76
2023/10/30 10:46:23;;;;;;;4.55;1.70;;;;;;;;;;5131280;27;20687;-75
2023/10/30 10:48:50;;;;;;;3.20;1.60;;;;;;;;;;5130489;27;20524;-75
2023/10/30 10:51:43;;;;;;;5.07;1.77;;;;;;;;;;5131244;27;20065;-75
2023/10/30 10:54:15;;;;;;;7.22;2.45;;;;;;;;;;5129603;27;20054;-75
2023/10/30 10:56:49;;;;;;;9.70;3.25;;;;;;;;;;5128824;27;20051;-73
2023/10/30 10:59:17;;;;;;;9.60;3.28;;;;;;;;;;5130759;27;20123;-73
2023/10/30 11:01:46;;;;;;;7.85;2.95;;;;;;;;;;5131567;27;20047;-74
2023/10/30 11:04:13;;;;;;;10.32;3.55;;;;;;;;;;5131634;27;20074;-73
2023/10/30 11:06:46;;;;;;;11.00;3.20;;;;;;;;;;5131360;27;20156;-75
2023/10/30 11:09:22;;;;;;;8.63;2.70;;;;;;;;;;5131157;27;20043;-72
2023/10/30 11:12:14;;;;;;;6.90;2.67;;;;;;;;;;5131149;27;20111;-74
2023/10/30 11:15:03;;;;;;;10.23;2.85;;;;;;;;;;5130825;27;20418;-74
2023/10/30 11:17:30;;;;;;;7.82;2.72;;;;;;;;;;5131124;27;20138;-74
2023/10/30 11:20:06;;;;;;;8.70;2.50;;;;;;;;;;5131004;27;20054;-73
2023/10/30 11:22:37;;;;;;;7.15;2.55;;;;;;;;;;5131505;27;20043;-73
2023/10/30 11:25:25;;;;;;;4.88;2.10;;;;;;;;;;5130543;27;20485;-73
2023/10/30 11:27:52;;;;;;;5.25;2.65;;;;;;;;;;5131634;27;20074;-73
2023/10/30 11:30:22;;;;;;;7.68;2.42;;;;;;;;;;5132528;27;20047;-72
2023/10/30 11:32:51;;;;;;;6.10;1.70;;;;;;;;;;5128082;27;20070;-74
2023/10/30 11:35:22;;;;;;;4.95;1.75;;;;;;;;;;5130257;27;20043;-73
2023/10/30 11:37:52;;;;;;;;;;;;;;;;;;5128126;27;20047;-72
2023/10/30 11:40:19;;;;;;;5.13;1.10;;;;;;;;;;5130265;27;19930;-72
2023/10/30 11:42:46;;;;;;;4.10;0.80;;;;;;;;;;5130058;27;20394;-73
2023/10/30 11:45:23;;;;;;;1.20;0.55;;;;;;;;;;5129050;27;20126;-75
2023/10/30 11:48:02;;;;;;;3.08;0.88;;;;;;;;;;5127449;27;20493;-75
2023/10/30 11:50:43;;;;;;;3.45;0.90;;;;;;;;;;5127234;27;20413;-74
2023/10/30 11:53:11;;;;;;;1.40;0.55;;;;;;;;;;5124546;27;20066;-74
2023/10/30 11:55:39;;;;;;;1.15;0.60;;;;;;;;;;5129567;27;20130;-73
2023/10/30 11:58:10;;;;;;;5.10;0.65;;;;;;;;;;5130120;27;20039;-73
2023/10/30 12:00:47;;;;;;;2.03;0.90;;;;;;;;;;5130391;27;20050;-72
2023/10/30 12:03:15;;;;;;;2.13;0.80;;;;;;;;;;5130550;27;20047;-74
2023/10/30 12:05:43;;;;;;;4.00;0.80;;;;;;;;;;5111785;27;20130;-75
2023/10/30 12:08:13;;;;;;;3.90;1.13;;;;;;;;;;5130329;27;20051;-75
2023/10/30 12:10:39;;;;;;;1.80;0.77;;;;;;;;;;5130494;27;20158;-74
2023/10/30 12:13:09;;;;;;;2.80;0.90;;;;;;;;;;5130384;27;20518;-73
2023/10/30 12:15:36;;;;;;;2.40;0.98;;;;;;;;;;5129878;27;20055;-74
2023/10/30 12:18:04;;;;;;;3.45;1.00;;;;;;;;;;5111806;28;20074;-73
2023/10/30 12:20:31;;;;;;;2.88;0.70;;;;;;;;;;5129438;27;20055;-74
2023/10/30 12:22:58;;;;;;;4.65;1.00;;;;;;;;;;5130174;27;20047;-75
2023/10/30 12:25:25;;;;;;;3.25;0.90;;;;;;;;;;5111890;28;20046;-74
2023/10/30 12:28:01;;;;;;;4.07;1.02;;;;;;;;;;5130229;28;20039;-74
2023/10/30 12:30:35;;;;;;;3.22;0.90;;;;;;;;;;5109558;28;20627;-73
2023/10/30 12:33:03;;;;;;;2.55;0.98;;;;;;;;;;5109789;28;20043;-73
2023/10/30 12:35:30;;;;;;;3.28;0.70;;;;;;;;;;5090982;28;20055;-73
2023/10/30 12:37:56;;;;;;;1.70;0.90;;;;;;;;;;5109496;28;20083;-73
2023/10/30 12:40:23;;;;;;;3.03;1.00;;;;;;;;;;5109500;28;20058;-74
2023/10/30 12:42:52;;;;;;;0.75;0.57;;;;;;;;;;5109442;28;20051;-75
2023/10/30 12:45:20;;;;;;;1.02;0.65;;;;;;;;;;5109190;28;20051;-73
2023/10/30 12:47:53;;;;;;;1.27;0.60;;;;;;;;;;5109887;28;20051;-74
2023/10/30 12:50:22;;;;;;;1.23;0.60;;;;;;;;;;5095075;28;20043;-73
2023/10/30 12:52:48;;;;;;;1.70;0.60;;;;;;;;;;5129975;28;20048;-73
2023/10/30 12:55:15;;;;;;;1.10;0.52;;;;;;;;;;5130967;27;20043;-73
2023/10/30 12:57:42;;;;;;;2.22;0.52;;;;;;;;;;5133512;27;20043;-74
2023/10/30 13:00:10;;;;;;;1.80;0.80;;;;;;;;;;5133795;27;20043;-73
2023/10/30 13:02:37;;;;;;;1.27;0.60;;;;;;;;;;5114802;27;20449;-72
2023/10/30 13:05:05;;;;;;;1.08;0.50;;;;;;;;;;5133691;27;20057;-74
2023/10/30 13:07:32;;;;;;;2.15;0.60;;;;;;;;;;5133834;27;20047;-75
2023/10/30 13:09:58;;;;;;;1.63;0.50;;;;;;;;;;5133959;27;20130;-74
2023/10/30 13:12:25;;;;;;;1.52;0.60;;;;;;;;;;5133443;27;20039;-74
2023/10/30 13:14:53;;;;;;;1.98;0.80;;;;;;;;;;5115221;27;20142;-72
2023/10/30 13:17:19;;;;;;;1.52;0.68;;;;;;;;;;5133450;27;20082;-72
2023/10/30 13:19:47;;;;;;;1.63;0.63;;;;;;;;;;5115182;27;20062;-74
2023/10/30 13:22:14;;;;;;;1.17;0.50;;;;;;;;;;5133590;27;20050;-74
2023/10/30 13:24:41;;;;;;;0.95;0.40;;;;;;;;;;5133454;27;20383;-73
2023/10/30 13:27:08;;;;;;;0.43;0.10;;;;;;;;;;5133385;27;20059;-73
2023/10/30 13:29:38;;;;;;;0.32;0.30;;;;;;;;;;5133612;27;20116;-76
2023/10/30 13:32:05;;;;;;;0.52;0.30;;;;;;;;;;5133070;27;20071;-73
2023/10/30 13:34:31;;;;;;;0.57;0.38;;;;;;;;;;5132830;27;20047;-74
2023/10/30 13:37:00;;;;;;;0.77;0.30;;;;;;;;;;5132724;27;20077;-74
2023/10/30 13:39:27;;;;;;;0.40;0.30;;;;;;;;;;5132996;27;20047;-74
2023/10/30 13:41:54;;;;;;;0.85;0.40;;;;;;;;;;5132978;27;20050;-74
2023/10/30 13:44:20;;;;;;;2.58;0.40;;;;;;;;;;5133471;27;20047;-75
2023/10/30 13:46:47;;;;;;;0.75;0.30;;;;;;;;;;5132826;27;20044;-73
2023/10/30 13:49:14;;;;;;;0.52;0.20;;;;;;;;;;5132919;27;20414;-73
2023/10/30 13:51:44;;;;;;;1.15;0.30;;;;;;;;;;5115245;27;20046;-70
2023/10/30 13:54:11;;;;;;;4.03;0.40;;;;;;;;;;5132594;27;20083;-72
2023/10/30 13:56:37;;;;;;;1.45;0.43;;;;;;;;;;5132480;27;20051;-74
2023/10/30 13:59:04;;;;;;;0.90;0.40;;;;;;;;;;5133012;27;20182;-72
2023/10/30 14:01:31;;;;;;;0.70;0.22;;;;;;;;;;5132677;27;20043;-73
2023/10/30 14:03:58;;;;;;;2.13;0.40;;;;;;;;;;5132860;27;20122;-72
2023/10/30 14:06:24;;;;;;;1.27;0.40;;;;;;;;;;5113430;27;20052;-72
2023/10/30 14:08:53;;;;;;;0.95;0.30;;;;;;;;;;5132460;27;20441;-71
2023/10/30 14:11:20;;;;;;;1.75;0.30;;;;;;;;;;5132431;27;20158;-73
2023/10/30 14:13:47;;;;;;;1.02;0.38;;;;;;;;;;5114169;27;20126;-75
2023/10/30 14:16:15;;;;;;;0.70;0.30;;;;;;;;;;5132392;27;20058;-72
2023/10/30 14:18:42;;;;;;;0.57;0.22;;;;;;;;;;5132411;27;20058;-77
2023/10/30 14:21:09;;;;;;;0.70;0.30;;;;;;;;;;5132523;27;20479;-73
2023/10/30 14:23:35;;;;;;;0.28;0.15;;;;;;;;;;5132239;27;20526;-72
2023/10/30 14:26:02;;;;;;;1.90;0.40;;;;;;;;;;5130872;27;20074;-74
2023/10/30 14:28:29;;;;;;;0.90;0.20;;;;;;;;;;5132065;27;20129;-72
2023/10/30 14:30:55;;;;;;;1.35;0.40;;;;;;;;;;5132286;27;20510;-73
2023/10/30 14:33:23;;;;;;;1.17;0.40;;;;;;;;;;5132309;27;20062;-73
2023/10/30 14:35:49;;;;;;;0.52;0.30;;;;;;;;;;5123406;27;20039;-73
2023/10/30 14:38:16;;;;;;;0.68;0.20;;;;;;;;;;5128266;27;20082;-73
2023/10/30 14:40:43;;;;;;;1.85;0.30;;;;;;;;;;5114769;27;20354;-72
2023/10/30 14:43:10;;;;;;;0.90;0.50;;;;;;;;;;5114655;27;20054;-71
2023/10/30 14:45:36;;;;;;;0.40;0.40;;;;;;;;;;5131784;27;20092;-72
2023/10/30 14:48:04;;;;;;;1.40;0.50;;;;;;;;;;5131671;27;20046;-73